Terminal Aerodrome Forecast
Issued by NWS

Home | Current Version | Previous Version | Text Only | Print | Product List | Glossary On
Versions: 1 2 3 4 5 6 7 8 9 10 11 12 13 14 15 16 17 18 19 20
000
FTUS43 KGRR 050500
TAFMKG
TAF
KMKG 050530Z 0506/0606 05007KT P6SM BKN150
     FM051000 08009KT 6SM -RA OVC090
     FM051200 09011KT 4SM -SHRA BR OVC035
     FM051500 09009KT 3SM -SHRA BR OVC012
     FM051700 09009KT 2SM -RA BR OVC008=

USA.gov is the U.S. government's official web portal to all federal, state and local government web resources and services.